Terminal Aerodrome Forecast
Issued by NWS

Home | Current Version | Previous Version | Text Only | Print | Product List | Glossary On
Versions: 1 2 3 4 5 6 7 8 9 10 11 12 13
000
FTUS43 KSGF 031100
TAFJLN
TAF
KJLN 031120Z 0312/0412 20004KT P6SM SCT120
     FM031400 21007KT P6SM SCT120
     FM031800 25010KT P6SM SCT050
     FM040100 18003KT P6SM SCT250=

USA.gov is the U.S. government's official web portal to all federal, state and local government web resources and services.